sensor_id;sensor_type;location;lat;lon;timestamp;temperature;humidity
71177;DHT22;58877;51.992;4.504;2022-07-18T00:02:18;19.67;69.57
71177;DHT22;58877;51.992;4.504;2022-07-18T00:04:44;19.63;69.86
71177;DHT22;58877;51.992;4.504;2022-07-18T00:07:10;19.61;69.59
71177;DHT22;58877;51.992;4.504;2022-07-18T00:09:37;19.57;69.59
71177;DHT22;58877;51.992;4.504;2022-07-18T00:12:04;19.54;69.44
71177;DHT22;58877;51.992;4.504;2022-07-18T00:14:30;19.50;69.33
71177;DHT22;58877;51.992;4.504;2022-07-18T00:16:56;19.50;69.06
71177;DHT22;58877;51.992;4.504;2022-07-18T00:19:22;19.50;68.97
71177;DHT22;58877;51.992;4.504;2022-07-18T00:21:47;19.46;68.95
71177;DHT22;58877;51.992;4.504;2022-07-18T00:24:13;19.43;69.08
71177;DHT22;58877;51.992;4.504;2022-07-18T00:26:38;19.35;69.40
71177;DHT22;58877;51.992;4.504;2022-07-18T00:29:07;19.34;69.60
71177;DHT22;58877;51.992;4.504;2022-07-18T00:31:34;19.28;69.51
71177;DHT22;58877;51.992;4.504;2022-07-18T00:34:00;19.24;69.46
71177;DHT22;58877;51.992;4.504;2022-07-18T00:36:27;19.37;68.96
71177;DHT22;58877;51.992;4.504;2022-07-18T00:38:52;19.37;68.36
71177;DHT22;58877;51.992;4.504;2022-07-18T00:41:18;19.30;68.34
71177;DHT22;58877;51.992;4.504;2022-07-18T00:43:43;19.17;68.46
71177;DHT22;58877;51.992;4.504;2022-07-18T00:46:10;19.14;69.12
71177;DHT22;58877;51.992;4.504;2022-07-18T00:48:39;19.23;68.27
71177;DHT22;58877;51.992;4.504;2022-07-18T00:51:06;19.19;68.28
71177;DHT22;58877;51.992;4.504;2022-07-18T00:53:31;19.13;68.99
71177;DHT22;58877;51.992;4.504;2022-07-18T00:55:59;19.04;69.08
71177;DHT22;58877;51.992;4.504;2022-07-18T00:58:25;18.99;69.33
71177;DHT22;58877;51.992;4.504;2022-07-18T01:00:50;18.92;70.08
71177;DHT22;58877;51.992;4.504;2022-07-18T01:03:34;18.88;70.18
71177;DHT22;58877;51.992;4.504;2022-07-18T01:06:00;18.86;70.24
71177;DHT22;58877;51.992;4.504;2022-07-18T01:08:25;18.83;70.35
71177;DHT22;58877;51.992;4.504;2022-07-18T01:10:51;18.73;69.37
71177;DHT22;58877;51.992;4.504;2022-07-18T01:13:19;18.69;70.76
71177;DHT22;58877;51.992;4.504;2022-07-18T01:15:45;18.68;70.84
71177;DHT22;58877;51.992;4.504;2022-07-18T01:18:11;18.63;70.76
71177;DHT22;58877;51.992;4.504;2022-07-18T01:20:36;18.59;70.82
71177;DHT22;58877;51.992;4.504;2022-07-18T01:23:02;18.55;70.79
71177;DHT22;58877;51.992;4.504;2022-07-18T01:25:28;18.52;70.50
71177;DHT22;58877;51.992;4.504;2022-07-18T01:27:54;18.52;71.23
71177;DHT22;58877;51.992;4.504;2022-07-18T01:30:20;18.55;71.21
71177;DHT22;58877;51.992;4.504;2022-07-18T01:32:46;18.53;70.80
71177;DHT22;58877;51.992;4.504;2022-07-18T01:35:12;18.53;70.99
71177;DHT22;58877;51.992;4.504;2022-07-18T01:37:37;18.60;70.27
71177;DHT22;58877;51.992;4.504;2022-07-18T01:40:23;18.52;70.13
71177;DHT22;58877;51.992;4.504;2022-07-18T01:42:49;18.45;70.71
71177;DHT22;58877;51.992;4.504;2022-07-18T01:45:19;18.51;69.69
71177;DHT22;58877;51.992;4.504;2022-07-18T01:47:45;18.51;69.07
71177;DHT22;58877;51.992;4.504;2022-07-18T01:50:13;18.53;69.30
71177;DHT22;58877;51.992;4.504;2022-07-18T01:52:41;18.49;69.20
71177;DHT22;58877;51.992;4.504;2022-07-18T01:55:08;18.44;69.18
71177;DHT22;58877;51.992;4.504;2022-07-18T01:57:37;18.32;69.73
71177;DHT22;58877;51.992;4.504;2022-07-18T02:00:05;18.35;69.79
71177;DHT22;58877;51.992;4.504;2022-07-18T02:02:38;18.37;69.33
71177;DHT22;58877;51.992;4.504;2022-07-18T02:05:08;18.45;68.09
71177;DHT22;58877;51.992;4.504;2022-07-18T02:07:37;18.44;68.72
71177;DHT22;58877;51.992;4.504;2022-07-18T02:10:08;18.35;69.25
71177;DHT22;58877;51.992;4.504;2022-07-18T02:12:35;18.25;70.08
71177;DHT22;58877;51.992;4.504;2022-07-18T02:15:03;18.15;70.81
71177;DHT22;58877;51.992;4.504;2022-07-18T02:17:28;18.11;70.96
71177;DHT22;58877;51.992;4.504;2022-07-18T02:19:54;18.05;71.01
71177;DHT22;58877;51.992;4.504;2022-07-18T02:22:21;18.01;71.44
71177;DHT22;58877;51.992;4.504;2022-07-18T02:24:48;17.97;71.58
71177;DHT22;58877;51.992;4.504;2022-07-18T02:27:13;17.95;71.45
71177;DHT22;58877;51.992;4.504;2022-07-18T02:29:39;17.97;71.34
71177;DHT22;58877;51.992;4.504;2022-07-18T02:32:05;17.94;71.60
71177;DHT22;58877;51.992;4.504;2022-07-18T02:34:30;17.87;71.78
71177;DHT22;58877;51.992;4.504;2022-07-18T02:36:56;17.84;71.98
71177;DHT22;58877;51.992;4.504;2022-07-18T02:39:21;17.80;72.19
71177;DHT22;58877;51.992;4.504;2022-07-18T02:41:47;17.80;72.20
71177;DHT22;58877;51.992;4.504;2022-07-18T02:44:13;17.77;72.03
71177;DHT22;58877;51.992;4.504;2022-07-18T02:46:40;17.77;71.76
71177;DHT22;58877;51.992;4.504;2022-07-18T02:49:05;17.81;71.32
71177;DHT22;58877;51.992;4.504;2022-07-18T02:51:31;17.80;71.19
71177;DHT22;58877;51.992;4.504;2022-07-18T02:53:56;17.81;70.72
71177;DHT22;58877;51.992;4.504;2022-07-18T02:56:22;17.77;70.97
71177;DHT22;58877;51.992;4.504;2022-07-18T02:58:47;17.83;70.68
71177;DHT22;58877;51.992;4.504;2022-07-18T03:01:13;17.83;69.70
71177;DHT22;58877;51.992;4.504;2022-07-18T03:03:38;17.78;69.00
71177;DHT22;58877;51.992;4.504;2022-07-18T03:06:04;17.78;70.26
71177;DHT22;58877;51.992;4.504;2022-07-18T03:08:30;17.81;69.67
71177;DHT22;58877;51.992;4.504;2022-07-18T03:10:55;17.83;69.07
71177;DHT22;58877;51.992;4.504;2022-07-18T03:13:21;17.74;69.51
71177;DHT22;58877;51.992;4.504;2022-07-18T03:15:46;17.71;70.15
71177;DHT22;58877;51.992;4.504;2022-07-18T03:18:12;17.75;69.66
71177;DHT22;58877;51.992;4.504;2022-07-18T03:20:37;17.75;70.05
71177;DHT22;58877;51.992;4.504;2022-07-18T03:23:05;17.69;70.47
71177;DHT22;58877;51.992;4.504;2022-07-18T03:25:32;17.66;70.64
71177;DHT22;58877;51.992;4.504;2022-07-18T03:27:58;17.62;70.38
71177;DHT22;58877;51.992;4.504;2022-07-18T03:30:23;17.60;70.63
71177;DHT22;58877;51.992;4.504;2022-07-18T03:32:49;17.57;70.72
71177;DHT22;58877;51.992;4.504;2022-07-18T03:35:14;17.55;70.78
71177;DHT22;58877;51.992;4.504;2022-07-18T03:37:40;17.55;70.61
71177;DHT22;58877;51.992;4.504;2022-07-18T03:40:08;17.55;70.63
71177;DHT22;58877;51.992;4.504;2022-07-18T03:42:37;17.53;70.61
71177;DHT22;58877;51.992;4.504;2022-07-18T03:45:04;17.55;70.46
71177;DHT22;58877;51.992;4.504;2022-07-18T03:47:33;17.54;70.56
71177;DHT22;58877;51.992;4.504;2022-07-18T03:49:58;17.55;70.23
71177;DHT22;58877;51.992;4.504;2022-07-18T03:52:24;17.49;69.17
71177;DHT22;58877;51.992;4.504;2022-07-18T03:54:52;17.49;69.76
71177;DHT22;58877;51.992;4.504;2022-07-18T03:57:20;17.50;70.17
71177;DHT22;58877;51.992;4.504;2022-07-18T03:59:45;17.51;70.48
71177;DHT22;58877;51.992;4.504;2022-07-18T04:02:11;17.47;70.92
71177;DHT22;58877;51.992;4.504;2022-07-18T04:04:36;17.44;71.25
71177;DHT22;58877;51.992;4.504;2022-07-18T04:07:02;17.47;71.48
71177;DHT22;58877;51.992;4.504;2022-07-18T04:09:29;17.46;71.35
71177;DHT22;58877;51.992;4.504;2022-07-18T04:11:55;17.47;71.30
71177;DHT22;58877;51.992;4.504;2022-07-18T04:14:21;17.49;71.51
71177;DHT22;58877;51.992;4.504;2022-07-18T04:16:48;17.53;70.88
71177;DHT22;58877;51.992;4.504;2022-07-18T04:19:14;17.53;71.37
71177;DHT22;58877;51.992;4.504;2022-07-18T04:21:42;17.53;70.77
71177;DHT22;58877;51.992;4.504;2022-07-18T04:24:08;17.51;70.98
71177;DHT22;58877;51.992;4.504;2022-07-18T04:26:34;17.51;71.11
71177;DHT22;58877;51.992;4.504;2022-07-18T04:28:59;17.54;71.32
71177;DHT22;58877;51.992;4.504;2022-07-18T04:31:25;17.57;70.89
71177;DHT22;58877;51.992;4.504;2022-07-18T04:33:50;17.62;70.89
71177;DHT22;58877;51.992;4.504;2022-07-18T04:36:15;17.64;70.40
71177;DHT22;58877;51.992;4.504;2022-07-18T04:38:41;17.70;70.30
71177;DHT22;58877;51.992;4.504;2022-07-18T04:41:07;17.73;70.83
71177;DHT22;58877;51.992;4.504;2022-07-18T04:43:36;17.78;70.81
71177;DHT22;58877;51.992;4.504;2022-07-18T04:46:01;17.81;70.45
71177;DHT22;58877;51.992;4.504;2022-07-18T04:48:27;17.88;70.06
71177;DHT22;58877;51.992;4.504;2022-07-18T04:50:52;17.97;68.94
71177;DHT22;58877;51.992;4.504;2022-07-18T04:53:18;18.07;66.51
71177;DHT22;58877;51.992;4.504;2022-07-18T04:55:44;18.17;67.07
71177;DHT22;58877;51.992;4.504;2022-07-18T04:58:09;18.28;67.32
71177;DHT22;58877;51.992;4.504;2022-07-18T05:00:35;18.37;67.83
71177;DHT22;58877;51.992;4.504;2022-07-18T05:03:00;18.44;67.92
71177;DHT22;58877;51.992;4.504;2022-07-18T05:05:28;18.52;67.79
71177;DHT22;58877;51.992;4.504;2022-07-18T05:07:54;18.62;66.97
71177;DHT22;58877;51.992;4.504;2022-07-18T05:10:22;18.76;65.55
71177;DHT22;58877;51.992;4.504;2022-07-18T05:12:51;18.86;65.56
71177;DHT22;58877;51.992;4.504;2022-07-18T05:15:20;18.93;65.62
71177;DHT22;58877;51.992;4.504;2022-07-18T05:17:48;19.02;65.46
71177;DHT22;58877;51.992;4.504;2022-07-18T05:20:16;19.22;65.32
71177;DHT22;58877;51.992;4.504;2022-07-18T05:22:43;19.28;65.26
71177;DHT22;58877;51.992;4.504;2022-07-18T05:25:09;19.41;64.02
71177;DHT22;58877;51.992;4.504;2022-07-18T05:27:36;19.55;63.62
71177;DHT22;58877;51.992;4.504;2022-07-18T05:30:04;19.67;63.40
71177;DHT22;58877;51.992;4.504;2022-07-18T05:32:30;19.74;62.75
71177;DHT22;58877;51.992;4.504;2022-07-18T05:34:55;19.91;62.39
71177;DHT22;58877;51.992;4.504;2022-07-18T05:37:21;20.02;61.89
71177;DHT22;58877;51.992;4.504;2022-07-18T05:39:47;20.14;61.66
71177;DHT22;58877;51.992;4.504;2022-07-18T05:42:13;20.22;61.31
71177;DHT22;58877;51.992;4.504;2022-07-18T05:44:38;20.35;61.19
71177;DHT22;58877;51.992;4.504;2022-07-18T05:47:04;20.46;60.58
71177;DHT22;58877;51.992;4.504;2022-07-18T05:49:29;20.66;59.59
71177;DHT22;58877;51.992;4.504;2022-07-18T05:51:55;20.75;59.31
71177;DHT22;58877;51.992;4.504;2022-07-18T05:54:20;20.86;59.29
71177;DHT22;58877;51.992;4.504;2022-07-18T05:56:47;21.00;58.69
71177;DHT22;58877;51.992;4.504;2022-07-18T05:59:13;21.14;58.54
71177;DHT22;58877;51.992;4.504;2022-07-18T06:01:39;21.30;57.94
71177;DHT22;58877;51.992;4.504;2022-07-18T06:04:05;21.45;57.13
71177;DHT22;58877;51.992;4.504;2022-07-18T06:06:40;21.59;56.64
71177;DHT22;58877;51.992;4.504;2022-07-18T06:09:09;21.75;56.26
71177;DHT22;58877;51.992;4.504;2022-07-18T06:11:37;21.92;56.00
71177;DHT22;58877;51.992;4.504;2022-07-18T06:14:03;22.15;55.32
71177;DHT22;58877;51.992;4.504;2022-07-18T06:16:30;22.19;54.37
71177;DHT22;58877;51.992;4.504;2022-07-18T06:18:57;22.31;53.55
71177;DHT22;58877;51.992;4.504;2022-07-18T06:23:55;22.36;52.53
71177;DHT22;58877;51.992;4.504;2022-07-18T06:26:21;22.45;53.10
71177;DHT22;58877;51.992;4.504;2022-07-18T06:28:47;22.63;52.40
71177;DHT22;58877;51.992;4.504;2022-07-18T06:31:15;22.83;52.28
71177;DHT22;58877;51.992;4.504;2022-07-18T06:33:42;22.99;51.20
71177;DHT22;58877;51.992;4.504;2022-07-18T06:36:08;23.14;50.17
71177;DHT22;58877;51.992;4.504;2022-07-18T06:39:02;23.27;50.51
71177;DHT22;58877;51.992;4.504;2022-07-18T06:41:47;23.26;49.28
71177;DHT22;58877;51.992;4.504;2022-07-18T06:47:48;23.65;47.99
71177;DHT22;58877;51.992;4.504;2022-07-18T06:50:19;23.71;46.85
71177;DHT22;58877;51.992;4.504;2022-07-18T06:52:45;23.91;46.39
71177;DHT22;58877;51.992;4.504;2022-07-18T06:55:14;24.04;46.09
71177;DHT22;58877;51.992;4.504;2022-07-18T06:57:41;24.12;45.42
71177;DHT22;58877;51.992;4.504;2022-07-18T07:00:09;24.25;46.00
71177;DHT22;58877;51.992;4.504;2022-07-18T07:02:44;24.33;45.59
71177;DHT22;58877;51.992;4.504;2022-07-18T07:05:10;24.40;45.04
71177;DHT22;58877;51.992;4.504;2022-07-18T07:07:37;24.56;45.64
71177;DHT22;58877;51.992;4.504;2022-07-18T07:10:03;24.73;44.91
71177;DHT22;58877;51.992;4.504;2022-07-18T07:12:29;24.93;44.55
71177;DHT22;58877;51.992;4.504;2022-07-18T07:14:55;25.14;44.00
71177;DHT22;58877;51.992;4.504;2022-07-18T07:17:20;25.21;43.60
71177;DHT22;58877;51.992;4.504;2022-07-18T07:19:46;25.34;43.75
71177;DHT22;58877;51.992;4.504;2022-07-18T07:22:11;25.55;43.48
71177;DHT22;58877;51.992;4.504;2022-07-18T07:24:37;25.72;42.56
71177;DHT22;58877;51.992;4.504;2022-07-18T07:27:04;25.89;42.41
71177;DHT22;58877;51.992;4.504;2022-07-18T07:29:29;26.18;41.94
71177;DHT22;58877;51.992;4.504;2022-07-18T07:31:55;26.43;41.06
71177;DHT22;58877;51.992;4.504;2022-07-18T07:34:20;26.61;39.95
71177;DHT22;58877;51.992;4.504;2022-07-18T07:36:46;26.76;40.15
71177;DHT22;58877;51.992;4.504;2022-07-18T07:39:12;26.93;39.80
71177;DHT22;58877;51.992;4.504;2022-07-18T07:41:37;27.06;39.44
71177;DHT22;58877;51.992;4.504;2022-07-18T07:44:03;27.11;39.03
71177;DHT22;58877;51.992;4.504;2022-07-18T07:46:28;27.18;37.12
71177;DHT22;58877;51.992;4.504;2022-07-18T07:48:54;27.14;39.06
71177;DHT22;58877;51.992;4.504;2022-07-18T07:51:19;27.33;38.67
71177;DHT22;58877;51.992;4.504;2022-07-18T07:53:45;27.47;37.28
71177;DHT22;58877;51.992;4.504;2022-07-18T07:56:10;27.72;38.51
71177;DHT22;58877;51.992;4.504;2022-07-18T07:58:36;27.99;36.20
71177;DHT22;58877;51.992;4.504;2022-07-18T08:01:04;27.93;35.81
71177;DHT22;58877;51.992;4.504;2022-07-18T08:03:30;27.62;35.56
71177;DHT22;58877;51.992;4.504;2022-07-18T08:05:56;27.57;35.30
71177;DHT22;58877;51.992;4.504;2022-07-18T08:08:29;27.75;35.21
71177;DHT22;58877;51.992;4.504;2022-07-18T08:10:55;28.01;34.10
71177;DHT22;58877;51.992;4.504;2022-07-18T08:13:20;28.20;34.90
71177;DHT22;58877;51.992;4.504;2022-07-18T08:15:47;28.32;33.58
71177;DHT22;58877;51.992;4.504;2022-07-18T08:18:12;28.50;35.39
71177;DHT22;58877;51.992;4.504;2022-07-18T08:20:38;28.76;34.62
71177;DHT22;58877;51.992;4.504;2022-07-18T08:23:06;29.06;34.35
71177;DHT22;58877;51.992;4.504;2022-07-18T08:25:34;29.32;33.16
71177;DHT22;58877;51.992;4.504;2022-07-18T08:28:00;29.57;34.04
71177;DHT22;58877;51.992;4.504;2022-07-18T08:30:27;29.76;31.89
71177;DHT22;58877;51.992;4.504;2022-07-18T08:32:53;29.82;31.70
71177;DHT22;58877;51.992;4.504;2022-07-18T08:37:58;29.17;32.96
71177;DHT22;58877;51.992;4.504;2022-07-18T08:40:23;28.74;33.07
71177;DHT22;58877;51.992;4.504;2022-07-18T08:42:51;28.16;33.73
71177;DHT22;58877;51.992;4.504;2022-07-18T08:45:21;28.05;34.66
71177;DHT22;58877;51.992;4.504;2022-07-18T08:47:51;28.13;34.50
71177;DHT22;58877;51.992;4.504;2022-07-18T08:50:18;28.66;34.00
71177;DHT22;58877;51.992;4.504;2022-07-18T08:52:44;28.83;33.29
71177;DHT22;58877;51.992;4.504;2022-07-18T08:55:13;28.39;32.09
71177;DHT22;58877;51.992;4.504;2022-07-18T08:57:42;28.17;33.25
71177;DHT22;58877;51.992;4.504;2022-07-18T09:00:09;28.22;33.59
71177;DHT22;58877;51.992;4.504;2022-07-18T09:02:36;28.35;33.56
71177;DHT22;58877;51.992;4.504;2022-07-18T09:05:04;28.13;33.27
71177;DHT22;58877;51.992;4.504;2022-07-18T09:07:32;27.93;34.27
71177;DHT22;58877;51.992;4.504;2022-07-18T09:10:04;28.16;34.42
71177;DHT22;58877;51.992;4.504;2022-07-18T09:12:30;27.78;33.79
71177;DHT22;58877;51.992;4.504;2022-07-18T09:14:56;28.13;33.31
71177;DHT22;58877;51.992;4.504;2022-07-18T09:17:27;28.61;33.42
71177;DHT22;58877;51.992;4.504;2022-07-18T09:20:13;29.30;31.45
71177;DHT22;58877;51.992;4.504;2022-07-18T09:22:45;29.37;31.87
71177;DHT22;58877;51.992;4.504;2022-07-18T09:25:17;29.69;31.53
71177;DHT22;58877;51.992;4.504;2022-07-18T09:27:54;29.82;32.47
71177;DHT22;58877;51.992;4.504;2022-07-18T09:30:30;29.93;30.25
71177;DHT22;58877;51.992;4.504;2022-07-18T09:35:31;30.03;32.25
71177;DHT22;58877;51.992;4.504;2022-07-18T09:38:02;30.48;30.71
71177;DHT22;58877;51.992;4.504;2022-07-18T09:40:36;30.27;30.22
71177;DHT22;58877;51.992;4.504;2022-07-18T09:43:05;29.95;31.83
71177;DHT22;58877;51.992;4.504;2022-07-18T09:45:36;29.89;30.02
71177;DHT22;58877;51.992;4.504;2022-07-18T09:48:09;29.85;31.77
71177;DHT22;58877;51.992;4.504;2022-07-18T09:50:38;30.19;31.26
71177;DHT22;58877;51.992;4.504;2022-07-18T09:53:09;29.85;31.06
71177;DHT22;58877;51.992;4.504;2022-07-18T09:56:08;29.58;32.17
71177;DHT22;58877;51.992;4.504;2022-07-18T09:58:40;29.34;32.57
71177;DHT22;58877;51.992;4.504;2022-07-18T10:01:08;29.37;31.25
71177;DHT22;58877;51.992;4.504;2022-07-18T10:03:37;29.58;31.49
71177;DHT22;58877;51.992;4.504;2022-07-18T10:06:08;29.61;31.45
71177;DHT22;58877;51.992;4.504;2022-07-18T10:08:34;30.02;28.83
71177;DHT22;58877;51.992;4.504;2022-07-18T10:11:03;30.29;29.91
71177;DHT22;58877;51.992;4.504;2022-07-18T10:13:31;30.32;29.12
71177;DHT22;58877;51.992;4.504;2022-07-18T10:15:57;29.81;30.14
71177;DHT22;58877;51.992;4.504;2022-07-18T10:18:26;29.62;30.76
71177;DHT22;58877;51.992;4.504;2022-07-18T10:21:04;29.50;29.92
71177;DHT22;58877;51.992;4.504;2022-07-18T10:23:49;29.58;30.88
71177;DHT22;58877;51.992;4.504;2022-07-18T10:26:21;30.15;29.98
71177;DHT22;58877;51.992;4.504;2022-07-18T10:33:51;31.06;28.37
71177;DHT22;58877;51.992;4.504;2022-07-18T10:36:24;31.45;27.45
71177;DHT22;58877;51.992;4.504;2022-07-18T10:39:11;31.82;23.64
71177;DHT22;58877;51.992;4.504;2022-07-18T10:47:14;31.66;24.84
71177;DHT22;58877;51.992;4.504;2022-07-18T11:02:32;31.90;26.07
71177;DHT22;58877;51.992;4.504;2022-07-18T11:04:58;32.32;24.70
71177;DHT22;58877;51.992;4.504;2022-07-18T11:07:27;32.57;24.52
71177;DHT22;58877;51.992;4.504;2022-07-18T11:09:53;32.66;24.24
71177;DHT22;58877;51.992;4.504;2022-07-18T11:12:26;32.91;24.80
71177;DHT22;58877;51.992;4.504;2022-07-18T11:15:10;33.12;24.15
71177;DHT22;58877;51.992;4.504;2022-07-18T11:17:57;33.27;24.07
71177;DHT22;58877;51.992;4.504;2022-07-18T11:20:27;33.35;24.78
71177;DHT22;58877;51.992;4.504;2022-07-18T11:22:53;33.18;23.67
71177;DHT22;58877;51.992;4.504;2022-07-18T11:25:19;32.74;24.24
71177;DHT22;58877;51.992;4.504;2022-07-18T11:27:47;32.71;24.06
71177;DHT22;58877;51.992;4.504;2022-07-18T11:30:17;32.27;25.10
71177;DHT22;58877;51.992;4.504;2022-07-18T11:32:43;32.44;26.22
71177;DHT22;58877;51.992;4.504;2022-07-18T11:35:20;32.17;25.52
71177;DHT22;58877;51.992;4.504;2022-07-18T11:37:48;32.30;25.37
71177;DHT22;58877;51.992;4.504;2022-07-18T11:40:14;32.33;24.14
71177;DHT22;58877;51.992;4.504;2022-07-18T11:42:43;32.27;25.55
71177;DHT22;58877;51.992;4.504;2022-07-18T11:45:12;32.55;26.88
71177;DHT22;58877;51.992;4.504;2022-07-18T11:47:50;32.94;24.87
71177;DHT22;58877;51.992;4.504;2022-07-18T11:50:33;33.20;24.56
71177;DHT22;58877;51.992;4.504;2022-07-18T11:53:00;33.07;25.05
71177;DHT22;58877;51.992;4.504;2022-07-18T11:55:36;33.21;24.35
71177;DHT22;58877;51.992;4.504;2022-07-18T12:00:33;33.45;25.81
71177;DHT22;58877;51.992;4.504;2022-07-18T12:03:17;33.58;24.70
71177;DHT22;58877;51.992;4.504;2022-07-18T12:05:48;33.66;24.33
71177;DHT22;58877;51.992;4.504;2022-07-18T12:08:38;33.66;23.97
71177;DHT22;58877;51.992;4.504;2022-07-18T12:19:01;34.12;23.50
71177;DHT22;58877;51.992;4.504;2022-07-18T12:27:21;32.92;25.27
71177;DHT22;58877;51.992;4.504;2022-07-18T12:32:26;33.01;23.89
71177;DHT22;58877;51.992;4.504;2022-07-18T12:35:21;32.76;23.72
71177;DHT22;58877;51.992;4.504;2022-07-18T12:38:09;33.14;25.04
71177;DHT22;58877;51.992;4.504;2022-07-18T12:40:48;33.52;24.38
71177;DHT22;58877;51.992;4.504;2022-07-18T12:43:18;33.62;23.14
71177;DHT22;58877;51.992;4.504;2022-07-18T12:45:46;33.41;23.94
71177;DHT22;58877;51.992;4.504;2022-07-18T12:48:13;33.30;22.20
71177;DHT22;58877;51.992;4.504;2022-07-18T12:50:40;33.10;22.65
71177;DHT22;58877;51.992;4.504;2022-07-18T12:53:07;33.03;23.02
71177;DHT22;58877;51.992;4.504;2022-07-18T12:55:33;33.30;25.16
71177;DHT22;58877;51.992;4.504;2022-07-18T12:58:03;33.51;22.61
71177;DHT22;58877;51.992;4.504;2022-07-18T13:00:30;33.68;22.35
71177;DHT22;58877;51.992;4.504;2022-07-18T13:02:57;33.62;22.38
71177;DHT22;58877;51.992;4.504;2022-07-18T13:05:25;33.71;22.53
71177;DHT22;58877;51.992;4.504;2022-07-18T13:07:50;34.02;23.77
71177;DHT22;58877;51.992;4.504;2022-07-18T13:10:16;34.27;22.56
71177;DHT22;58877;51.992;4.504;2022-07-18T13:12:41;33.96;21.14
71177;DHT22;58877;51.992;4.504;2022-07-18T13:15:07;33.22;21.60
71177;DHT22;58877;51.992;4.504;2022-07-18T13:17:33;33.37;23.74
71177;DHT22;58877;51.992;4.504;2022-07-18T13:19:58;33.30;22.94
71177;DHT22;58877;51.992;4.504;2022-07-18T13:22:24;33.15;23.88
71177;DHT22;58877;51.992;4.504;2022-07-18T13:24:49;33.21;24.74
71177;DHT22;58877;51.992;4.504;2022-07-18T13:27:15;33.61;24.44
71177;DHT22;58877;51.992;4.504;2022-07-18T13:29:43;33.82;23.39
71177;DHT22;58877;51.992;4.504;2022-07-18T13:32:08;34.10;22.67
71177;DHT22;58877;51.992;4.504;2022-07-18T13:34:34;34.15;22.59
71177;DHT22;58877;51.992;4.504;2022-07-18T13:37:00;34.17;23.26
71177;DHT22;58877;51.992;4.504;2022-07-18T13:39:25;34.43;23.56
71177;DHT22;58877;51.992;4.504;2022-07-18T13:41:50;34.82;23.69
71177;DHT22;58877;51.992;4.504;2022-07-18T13:44:16;34.20;22.51
71177;DHT22;58877;51.992;4.504;2022-07-18T13:46:42;34.37;23.38
71177;DHT22;58877;51.992;4.504;2022-07-18T13:49:10;34.55;23.42
71177;DHT22;58877;51.992;4.504;2022-07-18T13:51:36;34.46;22.31
71177;DHT22;58877;51.992;4.504;2022-07-18T13:54:04;34.76;24.03
71177;DHT22;58877;51.992;4.504;2022-07-18T13:56:30;34.73;22.01
71177;DHT22;58877;51.992;4.504;2022-07-18T13:58:55;34.80;23.14
71177;DHT22;58877;51.992;4.504;2022-07-18T14:01:21;35.15;24.44
71177;DHT22;58877;51.992;4.504;2022-07-18T14:03:47;34.73;21.65
71177;DHT22;58877;51.992;4.504;2022-07-18T14:06:12;33.79;22.84
71177;DHT22;58877;51.992;4.504;2022-07-18T14:08:37;33.44;23.37
71177;DHT22;58877;51.992;4.504;2022-07-18T14:11:03;32.98;24.72
71177;DHT22;58877;51.992;4.504;2022-07-18T14:13:29;33.58;24.01
71177;DHT22;58877;51.992;4.504;2022-07-18T14:15:54;33.88;23.76
71177;DHT22;58877;51.992;4.504;2022-07-18T14:18:20;34.36;24.81
71177;DHT22;58877;51.992;4.504;2022-07-18T14:20:46;34.46;23.14
71177;DHT22;58877;51.992;4.504;2022-07-18T14:23:11;34.32;25.65
71177;DHT22;58877;51.992;4.504;2022-07-18T14:25:37;33.81;24.16
71177;DHT22;58877;51.992;4.504;2022-07-18T14:28:02;34.19;24.97
71177;DHT22;58877;51.992;4.504;2022-07-18T14:30:28;34.20;23.99
71177;DHT22;58877;51.992;4.504;2022-07-18T14:32:54;34.08;23.84
71177;DHT22;58877;51.992;4.504;2022-07-18T14:35:19;33.89;24.28
71177;DHT22;58877;51.992;4.504;2022-07-18T14:37:44;34.55;25.22
71177;DHT22;58877;51.992;4.504;2022-07-18T14:40:10;34.37;24.11
71177;DHT22;58877;51.992;4.504;2022-07-18T14:42:36;34.79;23.74
71177;DHT22;58877;51.992;4.504;2022-07-18T14:45:02;34.88;23.07
71177;DHT22;58877;51.992;4.504;2022-07-18T14:47:28;34.86;22.58
71177;DHT22;58877;51.992;4.504;2022-07-18T14:49:56;34.53;24.46
71177;DHT22;58877;51.992;4.504;2022-07-18T14:52:21;34.70;24.17
71177;DHT22;58877;51.992;4.504;2022-07-18T14:54:47;35.37;24.88
71177;DHT22;58877;51.992;4.504;2022-07-18T14:57:13;35.82;22.96
71177;DHT22;58877;51.992;4.504;2022-07-18T14:59:41;34.73;23.14
71177;DHT22;58877;51.992;4.504;2022-07-18T15:02:06;34.32;24.39
71177;DHT22;58877;51.992;4.504;2022-07-18T15:04:33;35.80;23.86
71177;DHT22;58877;51.992;4.504;2022-07-18T15:06:58;36.42;23.96
71177;DHT22;58877;51.992;4.504;2022-07-18T15:09:24;37.70;23.26
71177;DHT22;58877;51.992;4.504;2022-07-18T15:11:49;38.93;24.31
71177;DHT22;58877;51.992;4.504;2022-07-18T15:14:15;39.65;19.42
71177;DHT22;58877;51.992;4.504;2022-07-18T15:16:40;38.92;21.73
71177;DHT22;58877;51.992;4.504;2022-07-18T15:19:06;36.94;20.92
71177;DHT22;58877;51.992;4.504;2022-07-18T15:21:32;37.10;23.60
71177;DHT22;58877;51.992;4.504;2022-07-18T15:24:00;37.81;21.91
71177;DHT22;58877;51.992;4.504;2022-07-18T15:26:32;37.92;20.69
71177;DHT22;58877;51.992;4.504;2022-07-18T15:28:58;37.96;20.74
71177;DHT22;58877;51.992;4.504;2022-07-18T15:31:23;37.88;20.12
71177;DHT22;58877;51.992;4.504;2022-07-18T15:33:49;37.91;20.37
71177;DHT22;58877;51.992;4.504;2022-07-18T15:36:14;37.74;22.70
71177;DHT22;58877;51.992;4.504;2022-07-18T15:38:43;39.09;20.94
71177;DHT22;58877;51.992;4.504;2022-07-18T15:41:11;40.51;20.29
71177;DHT22;58877;51.992;4.504;2022-07-18T15:43:39;40.63;18.65
71177;DHT22;58877;51.992;4.504;2022-07-18T15:46:05;39.41;19.38
71177;DHT22;58877;51.992;4.504;2022-07-18T15:48:30;39.09;19.44
71177;DHT22;58877;51.992;4.504;2022-07-18T15:50:56;38.15;21.94
71177;DHT22;58877;51.992;4.504;2022-07-18T15:53:21;38.14;20.59
71177;DHT22;58877;51.992;4.504;2022-07-18T15:55:47;39.41;21.08
71177;DHT22;58877;51.992;4.504;2022-07-18T15:58:12;40.58;18.35
71177;DHT22;58877;51.992;4.504;2022-07-18T16:00:38;39.85;18.53
71177;DHT22;58877;51.992;4.504;2022-07-18T16:03:04;39.19;19.69
71177;DHT22;58877;51.992;4.504;2022-07-18T16:05:29;40.07;19.41
71177;DHT22;58877;51.992;4.504;2022-07-18T16:07:55;39.84;18.95
71177;DHT22;58877;51.992;4.504;2022-07-18T16:10:20;40.49;19.29
71177;DHT22;58877;51.992;4.504;2022-07-18T16:12:46;40.86;18.00
71177;DHT22;58877;51.992;4.504;2022-07-18T16:15:12;40.44;18.41
71177;DHT22;58877;51.992;4.504;2022-07-18T16:17:38;40.79;19.40
71177;DHT22;58877;51.992;4.504;2022-07-18T16:20:05;40.02;19.11
71177;DHT22;58877;51.992;4.504;2022-07-18T16:22:31;39.68;19.84
71177;DHT22;58877;51.992;4.504;2022-07-18T16:24:57;38.37;19.97
71177;DHT22;58877;51.992;4.504;2022-07-18T16:27:24;37.89;21.03